M I D A S
Marine Information and Data Acquisition System
Tripno 1420 of the Zeeleeuw from 2008-01-30 07:56:28 to 2008-01-30 14:14:02
Back to CruiseResearch ActivitiesStationsMapUnderway DataData graphs

EquipmentUnitsComment
TimeDGPSUTC
LatitudeDGPSDM.mWGS84
LongitudeDGPSDM.mWGS84
TemperatureSBE03/SBE38deg celciusITS90
ConductivitySBE21S/mITS90
SalinitySBE21 Practical Salinity Units
ChlorophylAChelsea fluorimeterg/lCalibrated in Aceton
Missing or incorrect values are displayed as -999
Sea surface data collected by the RV Zeeleeuw from 2008-01-30 07:56:29 to 2008-01-30 14:25:45
Time Latitude Longitude Temperature Conductivity Salinity ChlorophylA
2008-01-30 07:57:34 51°13.662 2°55.953 -999 0.241053 1.374162 -1.766697
2008-01-30 07:58:34 51°13.665 2°55.916 -999 0.24095 1.373652 -1.801521
2008-01-30 07:59:34 51°13.687 2°55.813 -999 0.241362 1.376182 -1.801521
2008-01-30 08:00:34 51°13.704 2°55.729 -999 0.241053 1.374216 -1.801521
2008-01-30 08:01:34 51°13.695 2°55.728 -999 0.24095 1.373817 -1.801521
2008-01-30 08:02:34 51°13.701 2°55.755 -999 0.240847 1.373362 -1.801521
2008-01-30 08:03:34 51°13.704 2°55.757 -999 0.240847 1.373444 -1.801521
2008-01-30 08:04:34 51°13.774 2°55.686 -999 0.240847 1.373499 -1.801521
2008-01-30 08:05:34 51°13.861 2°55.613 -999 0.240847 1.373444 -1.801521
2008-01-30 08:06:34 51°13.978 2°55.527 -999 0.240847 1.373553 -1.801521
2008-01-30 08:07:34 51°14.102 2°55.434 -999 0.240847 1.373827 -1.801521
2008-01-30 08:08:34 51°14.22 2°55.316 -999 0.240744 1.373454 -1.801521
2008-01-30 08:09:34 51°14.33 2°55.104 -999 0.240744 1.373564 -1.801521
2008-01-30 08:10:34 51°14.418 2°54.847 -999 0.240641 1.372917 -1.801521
2008-01-30 08:11:34 51°14.523 2°54.596 -999 0.240641 1.372999 -1.801521
2008-01-30 08:12:34 51°14.691 2°54.457 -999 0.240538 1.372572 -1.801521
2008-01-30 08:13:34 51°14.859 2°54.32 -999 0.240538 1.372709 -1.801521
2008-01-30 08:14:34 51°15.026 2°54.185 -999 0.240538 1.372763 -1.801521
2008-01-30 08:15:34 51°15.196 2°54.044 -999 0.240436 1.372281 -1.801521
2008-01-30 08:16:34 51°15.359 2°53.904 -999 0.240538 1.37301 -1.801521
2008-01-30 08:17:34 51°15.525 2°53.762 -999 0.240436 1.372418 -1.801521
2008-01-30 08:18:34 51°15.694 2°53.619 -999 0.240333 1.371908 -1.801521
2008-01-30 08:19:34 51°15.86 2°53.483 -999 0.24023 1.371343 -1.801521
2008-01-30 08:20:34 51°16.024 2°53.349 -999 0.24023 1.371398 -1.801521
2008-01-30 08:21:34 51°16.195 2°53.21 -999 0.24023 1.371507 -1.801521
2008-01-30 08:22:34 51°16.364 2°53.075 -999 0.24023 1.371534 -1.801521
2008-01-30 08:23:34 51°16.533 2°52.939 -999 0.240127 1.370915 -1.801521
2008-01-30 08:24:34 51°16.707 2°52.819 -999 0.240024 1.370405 -1.801521
2008-01-30 08:25:34 51°16.885 2°52.71 -999 0.240024 1.370432 -1.801521
2008-01-30 08:26:34 51°17.071 2°52.624 -999 0.239921 1.369867 -1.766697
2008-01-30 08:27:34 51°17.259 2°52.559 -999 0.239921 1.369894 -1.801521
2008-01-30 08:28:34 51°17.445 2°52.524 -999 0.239818 1.369493 -1.766697
2008-01-30 08:29:34 51°17.636 2°52.507 -999 0.239921 1.369976 -1.801521
2008-01-30 08:30:34 51°17.816 2°52.534 -999 0.24023 1.371753 -1.801521
2008-01-30 08:31:34 51°17.997 2°52.593 -999 0.240024 1.370788 -1.801521
2008-01-30 08:32:34 51°18.154 2°52.76 -999 0.240127 1.371517 -1.801521
2008-01-30 08:33:34 51°18.269 2°53.013 -999 0.240024 1.370952 -1.801521
2008-01-30 08:34:34 51°18.378 2°53.275 -999 0.239921 1.370332 -1.801521
2008-01-30 08:35:34 51°18.478 2°53.545 -999 0.239921 1.370441 -1.801521
2008-01-30 08:36:34 51°18.569 2°53.823 -999 0.240127 1.371544 -1.801521
2008-01-30 08:37:34 51°18.66 2°54.098 -999 0.239921 1.370496 -1.801521
2008-01-30 08:38:34 51°18.748 2°54.378 -999 0.239921 1.370469 -1.801521
2008-01-30 08:39:34 51°18.836 2°54.654 -999 0.239921 1.370551 -1.801521
2008-01-30 08:40:34 51°18.928 2°54.929 -999 0.239818 1.369903 -1.801521
2008-01-30 08:41:34 51°19.019 2°55.204 -999 0.239921 1.37066 -1.801521
2008-01-30 08:42:34 51°19.102 2°55.484 -999 0.24023 1.372493 -1.801521
2008-01-30 08:43:34 51°19.175 2°55.769 -999 0.240127 1.371873 -1.801521
2008-01-30 08:44:34 51°19.241 2°56.061 -999 0.240024 1.371417 -1.766697
2008-01-30 08:45:34 51°19.305 2°56.352 -999 0.240024 1.371499 -1.801521
2008-01-30 08:46:34 51°19.368 2°56.645 -999 0.239921 1.370742 -1.801521
2008-01-30 08:47:34 51°19.433 2°56.934 -999 0.239921 1.370907 -1.766697
2008-01-30 08:48:34 51°19.497 2°57.225 -999 0.240024 1.371499 -1.801521
2008-01-30 08:49:34 51°19.563 2°57.512 -999 0.240024 1.371445 -1.801521
2008-01-30 08:50:34 51°19.627 2°57.801 -999 0.24023 1.372849 -1.801521
2008-01-30 08:51:34 51°19.693 2°58.09 -999 0.24023 1.37274 -1.801521
2008-01-30 08:52:34 51°19.756 2°58.377 -999 0.240127 1.372065 -1.766697
2008-01-30 08:53:34 51°19.817 2°58.664 -999 0.240127 1.372174 -1.801521
2008-01-30 08:54:34 51°19.873 2°58.95 -999 0.24023 1.372849 -1.801521
2008-01-30 08:55:34 51°19.932 2°59.234 -999 0.24023 1.372767 -1.801521
2008-01-30 08:56:34 51°19.986 2°59.52 -999 0.24023 1.372712 -1.801521
2008-01-30 08:57:34 51°20.035 2°59.808 -999 0.240127 1.372558 -1.801521
2008-01-30 08:58:34 51°20.085 3°0.092 -999 0.24023 1.372904 -1.801521
2008-01-30 08:59:34 51°20.13 3°0.38 -999 0.24023 1.373041 -1.801521
2008-01-30 09:00:34 51°20.175 3°0.665 -999 0.240436 1.374447 -1.801521
2008-01-30 09:01:34 51°20.231 3°0.946 -999 0.240333 1.373662 -1.801521
2008-01-30 09:02:34 51°20.286 3°1.227 -999 0.240436 1.374392 -1.801521
2008-01-30 09:03:34 51°20.34 3°1.506 -999 0.240333 1.373909 -1.801521
2008-01-30 09:04:34 51°20.395 3°1.784 -999 0.240436 1.374529 -1.801521
2008-01-30 09:05:34 51°20.449 3°2.066 -999 0.24023 1.373453 -1.801521
2008-01-30 09:06:34 51°20.503 3°2.347 -999 0.240436 1.374612 -1.801521
2008-01-30 09:07:34 51°20.554 3°2.629 -999 0.240333 1.374074 -1.801521
2008-01-30 09:08:34 51°20.599 3°2.912 -999 0.240539 1.37537 -1.801521
2008-01-30 09:09:34 51°20.642 3°3.197 -999 0.240436 1.374831 -1.801521
2008-01-30 09:10:34 51°20.677 3°3.486 -999 0.240333 1.374128 -1.801521
2008-01-30 09:11:34 51°20.722 3°3.776 -999 0.240539 1.37559 -1.801521
2008-01-30 09:12:34 51°20.755 3°4.078 -999 0.240333 1.374513 -1.801521
2008-01-30 09:13:34 51°20.787 3°4.38 -999 0.240436 1.375161 -1.801521
2008-01-30 09:14:34 51°20.821 3°4.681 -999 0.240539 1.375755 -1.801521
2008-01-30 09:15:34 51°20.865 3°4.978 -999 0.240436 1.375106 -1.801521
2008-01-30 09:16:34 51°20.904 3°5.276 -999 0.240436 1.375381 -1.801521
2008-01-30 09:17:34 51°20.941 3°5.575 -999 0.240539 1.376057 -1.801521
2008-01-30 09:18:34 51°20.987 3°5.872 -999 0.240641 1.376788 -1.801521
2008-01-30 09:19:34 51°21.036 3°6.164 -999 0.240539 1.376112 -1.766697
2008-01-30 09:20:34 51°21.093 3°6.45 -999 0.240539 1.376222 -1.801521
2008-01-30 09:21:34 51°21.152 3°6.735 -999 0.240641 1.377119 -1.801521
2008-01-30 09:22:34 51°21.212 3°7.019 -999 0.240539 1.376443 -1.801521
2008-01-30 09:23:34 51°21.269 3°7.301 -999 0.240436 1.375711 -1.801521
2008-01-30 09:24:34 51°21.325 3°7.585 -999 0.240744 1.377685 -1.801521
2008-01-30 09:25:34 51°21.381 3°7.869 -999 0.240641 1.377201 -1.801521
2008-01-30 09:26:34 51°21.44 3°8.152 -999 0.240641 1.377174 -1.801521
2008-01-30 09:27:34 51°21.498 3°8.434 -999 0.240641 1.37745 -1.801521
2008-01-30 09:28:34 51°21.552 3°8.716 -999 0.240642 1.377642 -1.801521
2008-01-30 09:29:34 51°21.605 3°8.941 -999 0.240539 1.376938 -1.801521
2008-01-30 09:30:34 51°21.644 3°9.028 -999 0.240642 1.377725 -1.801521
2008-01-30 09:31:34 51°21.697 3°8.939 -999 0.240539 1.377076 -1.801521
2008-01-30 09:32:34 51°21.664 3°8.834 -999 0.240642 1.377725 -1.801521
2008-01-30 09:33:34 51°21.63 3°8.775 -999 0.240642 1.377808 -1.801521
2008-01-30 09:34:34 51°21.598 3°8.721 -999 0.240539 1.377324 -1.801521
2008-01-30 09:35:34 51°21.563 3°8.648 -999 0.240539 1.377407 -1.801521
2008-01-30 09:36:34 51°21.529 3°8.561 -999 0.240539 1.377462 -1.801521
2008-01-30 09:37:34 51°21.5 3°8.455 -999 0.240333 1.37633 -1.801521
2008-01-30 09:38:34 51°21.478 3°8.365 -999 0.240539 1.377628 -1.801521
2008-01-30 09:39:34 51°21.456 3°8.277 -999 0.240539 1.377655 -1.801521
2008-01-30 09:40:34 51°21.433 3°8.192 -999 0.240436 1.377061 -1.801521
2008-01-30 09:41:34 51°21.408 3°8.108 -999 0.240333 1.37644 -1.801521
2008-01-30 09:42:34 51°21.382 3°8.024 -999 0.24023 1.375763 -1.801521
2008-01-30 09:43:34 51°21.357 3°7.942 -999 0.240333 1.376412 -1.801521
2008-01-30 09:44:34 51°21.334 3°7.859 -999 0.240333 1.37655 -1.801521
2008-01-30 09:45:34 51°21.311 3°7.77 -999 0.24023 1.376011 -1.801521
2008-01-30 09:46:34 51°21.287 3°7.684 -999 0.24023 1.376011 -1.801521
2008-01-30 09:47:34 51°21.263 3°7.6 -999 0.240127 1.375389 -1.801521
2008-01-30 09:48:34 51°21.237 3°7.517 -999 0.240024 1.374795 -1.801521
2008-01-30 09:49:34 51°21.21 3°7.436 -999 0.24023 1.376121 -1.801521
2008-01-30 09:50:34 51°21.185 3°7.354 -999 0.240024 1.374823 -1.766697
2008-01-30 09:51:34 51°21.16 3°7.274 -999 0.240024 1.374905 -1.801521
2008-01-30 09:52:34 51°21.138 3°7.19 -999 0.239921 1.374339 -1.766697
2008-01-30 09:53:34 51°21.117 3°7.104 -999 0.239818 1.373662 -1.801521
2008-01-30 09:54:34 51°21.096 3°7.018 -999 0.239818 1.37369 -1.801521
2008-01-30 09:55:34 51°21.075 3°6.933 -999 0.239818 1.373717 -1.766697
2008-01-30 09:56:34 51°21.056 3°6.846 -999 0.239818 1.373745 -1.801521
2008-01-30 09:57:34 51°21.04 3°6.756 -999 0.239818 1.3738 -1.801521
2008-01-30 09:58:34 51°21.025 3°6.669 -999 0.239715 1.373178 -1.801521
2008-01-30 09:59:34 51°21.012 3°6.577 -999 0.239715 1.373261 -1.801521
2008-01-30 10:00:34 51°21.001 3°6.487 -999 0.239612 1.372666 -1.801521
2008-01-30 10:01:34 51°20.986 3°6.4 -999 0.239612 1.372694 -1.801521
2008-01-30 10:02:34 51°20.974 3°6.313 -999 0.239715 1.373343 -1.801521
2008-01-30 10:03:34 51°20.96 3°6.227 -999 0.239612 1.372776 -1.801521
2008-01-30 10:04:34 51°20.949 3°6.135 -999 0.239406 1.371588 -1.801521
2008-01-30 10:05:34 51°20.938 3°6.046 -999 0.239509 1.372182 -1.801521
2008-01-30 10:06:34 51°20.925 3°5.959 -999 0.239406 1.37156 -1.801521
2008-01-30 10:07:34 51°20.911 3°5.871 -999 0.239509 1.37221 -1.801521
2008-01-30 10:08:34 51°20.895 3°5.786 -999 0.239406 1.371588 -1.766697
2008-01-30 10:09:34 51°20.878 3°5.706 -999 0.239509 1.372265 -1.801521
2008-01-30 10:10:34 51°20.863 3°5.625 -999 0.239303 1.371048 -1.801521
2008-01-30 10:11:34 51°20.854 3°5.542 -999 0.2392 1.370509 -1.801521
2008-01-30 10:12:34 51°20.863 3°5.478 -999 0.2392 1.370564 -1.801521
2008-01-30 10:13:34 51°20.875 3°5.436 -999 0.239097 1.36997 -1.801521
2008-01-30 10:14:34 51°20.877 3°5.409 -999 0.238995 1.369403 -1.801521
2008-01-30 10:15:34 51°20.87 3°5.388 -999 0.239097 1.370107 -1.801521
2008-01-30 10:16:34 51°20.857 3°5.364 -999 0.2392 1.370729 -1.801521
2008-01-30 10:17:34 51°20.841 3°5.339 -999 0.239097 1.370162 -1.801521
2008-01-30 10:18:34 51°20.836 3°5.321 -999 0.239097 1.370272 -1.801521
2008-01-30 10:19:34 51°20.863 3°5.268 -999 0.2392 1.370866 -1.801521
2008-01-30 10:20:34 51°20.857 3°5.105 -999 0.2392 1.370701 -1.801521
2008-01-30 10:21:34 51°20.849 3°4.786 -999 0.239097 1.370079 -1.766697
2008-01-30 10:22:34 51°20.825 3°4.427 -999 0.239303 1.371433 -1.801521
2008-01-30 10:23:34 51°20.793 3°4.069 -999 0.239406 1.372138 -1.801521
2008-01-30 10:24:34 51°20.756 3°3.71 -999 0.239406 1.372193 -1.801521
2008-01-30 10:25:34 51°20.713 3°3.352 -999 0.239406 1.37222 -1.801521
2008-01-30 10:26:34 51°20.667 3°2.995 -999 0.239612 1.373492 -1.801521
2008-01-30 10:27:34 51°20.614 3°2.637 -999 0.239715 1.374252 -1.801521
2008-01-30 10:28:33 51°20.566 3°2.283 -999 0.239612 1.37374 -1.801521
2008-01-30 10:29:32 51°20.515 3°1.932 -999 0.239715 1.374417 -1.801521
2008-01-30 10:30:31 51°20.454 3°1.586 -999 0.239715 1.374472 -1.801521
2008-01-30 10:31:30 51°20.374 3°1.248 -999 0.239715 1.374445 -1.801521
2008-01-30 10:32:30 51°20.299 3°0.902 -999 0.239921 1.37591 -1.801521
2008-01-30 10:33:30 51°20.227 3°0.552 -999 0.239818 1.375508 -1.801521
2008-01-30 10:34:30 51°20.152 3°0.204 -999 0.239921 1.376297 -1.801521
2008-01-30 10:35:30 51°20.077 2°59.855 -999 0.239921 1.376269 -1.801521
2008-01-30 10:36:30 51°20.002 2°59.505 -999 0.240024 1.376975 -1.801521
2008-01-30 10:37:30 51°19.923 2°59.156 -999 0.240024 1.377057 -1.801521
2008-01-30 10:38:30 51°19.838 2°58.81 -999 0.239921 1.376518 -1.801521
2008-01-30 10:39:30 51°19.751 2°58.463 -999 0.240024 1.377251 -1.801521
2008-01-30 10:40:31 51°19.664 2°58.111 -999 0.239921 1.376766 -1.801521
2008-01-30 10:41:31 51°19.578 2°57.765 -999 0.240024 1.377472 -1.801521
2008-01-30 10:42:30 51°19.493 2°57.426 -999 0.240024 1.377583 -1.801521
2008-01-30 10:43:30 51°19.406 2°57.08 -999 0.239921 1.376988 -1.801521
2008-01-30 10:44:30 51°19.318 2°56.734 -999 0.239921 1.377015 -1.801521
2008-01-30 10:45:30 51°19.232 2°56.386 -999 0.239921 1.377153 -1.801521
2008-01-30 10:46:31 51°19.146 2°56.034 -999 0.240024 1.377832 -1.801521
2008-01-30 10:47:30 51°19.064 2°55.694 -999 0.240024 1.377915 -1.801521
2008-01-30 10:48:31 51°18.978 2°55.349 -999 0.239921 1.377458 -1.801521
2008-01-30 10:49:30 51°18.897 2°55.017 -999 0.240024 1.378247 -1.801521
2008-01-30 10:50:31 51°18.813 2°54.673 -999 0.239921 1.377734 -1.801521
2008-01-30 10:51:31 51°18.73 2°54.336 -999 0.240024 1.378496 -1.801521
2008-01-30 10:52:31 51°18.649 2°54.003 -999 0.239921 1.377956 -1.801521
2008-01-30 10:53:30 51°18.567 2°53.673 -999 0.240024 1.378662 -1.801521
2008-01-30 10:54:30 51°18.473 2°53.343 -999 0.240024 1.378856 -1.801521
2008-01-30 10:55:30 51°18.386 2°53.057 -999 0.240024 1.379134 -1.801521
2008-01-30 10:56:30 51°18.336 2°52.896 -999 0.240024 1.379134 -1.801521
2008-01-30 10:57:30 51°18.267 2°52.697 -999 0.239921 1.37851 -1.801521
2008-01-30 10:58:30 51°18.17 2°52.403 -999 0.239921 1.378732 -1.801521
2008-01-30 10:59:30 51°18.073 2°52.086 -999 0.240024 1.379439 -1.801521
2008-01-30 11:00:30 51°17.974 2°51.771 -999 0.239921 1.379009 -1.801521
2008-01-30 11:01:30 51°17.867 2°51.464 -999 0.239921 1.37912 -1.801521
2008-01-30 11:02:31 51°17.759 2°51.151 -999 0.239921 1.379286 -1.801521
2008-01-30 11:03:30 51°17.654 2°50.85 -999 0.239818 1.378801 -1.801521
2008-01-30 11:04:30 51°17.549 2°50.541 -999 0.239921 1.379564 -1.801521
2008-01-30 11:05:30 51°17.44 2°50.238 -999 0.239818 1.379134 -1.801521
2008-01-30 11:06:31 51°17.322 2°49.938 -999 0.239818 1.379412 -1.801521
2008-01-30 11:07:30 51°17.122 2°49.846 -999 0.239715 1.378843 -1.801521
2008-01-30 11:08:30 51°16.908 2°49.796 -999 0.239715 1.379093 -1.801521
2008-01-30 11:09:30 51°16.721 2°49.616 -999 0.239818 1.379967 -1.801521
2008-01-30 11:10:31 51°16.551 2°49.38 -999 0.239612 1.378746 -1.801521
2008-01-30 11:11:30 51°16.384 2°49.151 -999 0.239715 1.37951 -1.801521
2008-01-30 11:12:30 51°16.215 2°48.916 -999 0.239612 1.378996 -1.801521
2008-01-30 11:13:31 51°16.042 2°48.684 -999 0.239509 1.37851 -1.801521
2008-01-30 11:14:30 51°15.87 2°48.467 -999 0.239406 1.377997 -1.801521
2008-01-30 11:15:30 51°15.696 2°48.246 -999 0.239509 1.378844 -1.801521
2008-01-30 11:16:30 51°15.524 2°48.028 -999 0.239406 1.378302 -1.801521
2008-01-30 11:17:31 51°15.349 2°47.805 -999 0.239406 1.378525 -1.801521
2008-01-30 11:18:30 51°15.182 2°47.592 -999 0.239201 1.37733 -1.801521
2008-01-30 11:19:30 51°15.013 2°47.367 -999 0.239201 1.377469 -1.801521
2008-01-30 11:20:31 51°14.849 2°47.119 -999 0.239201 1.377552 -1.801521
2008-01-30 11:21:31 51°14.684 2°46.881 -999 0.239304 1.378428 -1.801521
2008-01-30 11:22:30 51°14.515 2°46.654 -999 0.239098 1.37715 -1.801521
2008-01-30 11:23:30 51°14.34 2°46.432 -999 0.239098 1.377261 -1.801521
2008-01-30 11:24:31 51°14.164 2°46.211 -999 0.239098 1.377483 -1.801521
2008-01-30 11:25:30 51°13.989 2°46.008 -999 0.239098 1.377622 -1.801521
2008-01-30 11:26:30 51°13.808 2°45.816 -999 0.238892 1.376316 -1.801521
2008-01-30 11:27:30 51°13.628 2°45.622 -999 0.238892 1.376593 -1.801521
2008-01-30 11:28:30 51°13.445 2°45.421 -999 0.238789 1.376107 -1.801521
2008-01-30 11:29:31 51°13.263 2°45.212 -999 0.238892 1.376871 -1.801521
2008-01-30 11:30:30 51°13.098 2°44.981 -999 0.238789 1.376246 -1.801521
2008-01-30 11:31:30 51°12.942 2°44.73 -999 0.238789 1.376412 -1.801521
2008-01-30 11:32:30 51°12.805 2°44.462 -999 0.238789 1.376579 -1.801521
2008-01-30 11:33:30 51°12.671 2°44.199 -999 0.238892 1.377316 -1.801521
2008-01-30 11:34:30 51°12.536 2°43.941 -999 0.238686 1.376037 -1.801521
2008-01-30 11:35:30 51°12.406 2°43.676 -999 0.238789 1.376746 -1.801521
2008-01-30 11:36:31 51°12.285 2°43.391 -999 0.238789 1.376996 -1.801521
2008-01-30 11:37:30 51°12.171 2°43.116 -999 0.238789 1.376968 -1.801521
2008-01-30 11:38:30 51°12.048 2°42.845 -999 0.238686 1.376565 -1.801521
2008-01-30 11:39:30 51°11.928 2°42.569 -999 0.238583 1.37605 -1.801521
2008-01-30 11:40:31 51°11.805 2°42.29 -999 0.238686 1.376732 -1.801521
2008-01-30 11:41:30 51°11.685 2°42.021 -999 0.238583 1.376189 -1.801521
2008-01-30 11:42:30 51°11.565 2°41.746 -999 0.238583 1.376328 -1.801521
2008-01-30 11:43:31 51°11.442 2°41.467 -999 0.238583 1.376384 -1.801521
2008-01-30 11:44:30 51°11.32 2°41.198 -999 0.238583 1.376578 -1.801521
2008-01-30 11:45:31 51°11.194 2°40.922 -999 0.23848 1.376036 -1.801521
2008-01-30 11:46:30 51°11.055 2°40.678 -999 0.23848 1.376147 -1.801521
2008-01-30 11:47:31 51°10.909 2°40.427 -999 0.23848 1.376258 -1.801521
2008-01-30 11:48:30 51°10.767 2°40.182 -999 0.23848 1.376286 -1.801521
2008-01-30 11:49:31 51°10.619 2°39.927 -999 0.23848 1.376397 -1.801521
2008-01-30 11:50:30 51°10.48 2°39.677 -999 0.23848 1.376537 -1.801521
2008-01-30 11:51:31 51°10.343 2°39.406 -999 0.238377 1.375994 -1.801521
2008-01-30 11:52:31 51°10.209 2°39.141 -999 0.238377 1.376161 -1.801521
2008-01-30 11:53:30 51°10.11 2°38.969 -999 0.238377 1.376355 -1.801521
2008-01-30 11:54:31 51°10.121 2°38.825 -999 0.238274 1.375951 -1.801521
2008-01-30 11:55:31 51°10.153 2°38.733 -999 0.238274 1.376202 -1.801521
2008-01-30 11:56:31 51°10.177 2°38.669 -999 0.238171 1.375742 -1.801521
2008-01-30 11:57:31 51°10.206 2°38.651 -999 0.238274 1.376592 -1.801521
2008-01-30 11:58:31 51°10.253 2°38.677 -999 0.238171 1.376076 -1.801521
2008-01-30 11:59:31 51°10.232 2°38.761 -999 0.238274 1.376871 -1.801521
2008-01-30 12:00:31 51°10.151 2°38.766 -999 0.238171 1.376299 -1.801521
2008-01-30 12:01:31 51°10.086 2°38.704 -999 0.238171 1.376355 -1.801521
2008-01-30 12:02:31 51°10.032 2°38.637 -999 0.238171 1.376467 -1.801521
2008-01-30 12:03:31 51°9.985 2°38.568 -999 0.238068 1.375756 -1.801521
2008-01-30 12:04:31 51°9.949 2°38.48 -999 0.238068 1.375811 -1.801521
2008-01-30 12:05:31 51°9.92 2°38.393 -999 0.238068 1.375784 -1.801521
2008-01-30 12:06:31 51°9.895 2°38.305 -999 0.238068 1.375784 -1.801521
2008-01-30 12:07:31 51°9.873 2°38.216 -999 0.238171 1.376411 -1.801521
2008-01-30 12:08:31 51°9.85 2°38.129 -999 0.237965 1.375156 -1.801521
2008-01-30 12:09:31 51°9.829 2°38.041 -999 0.238068 1.375839 -1.766697
2008-01-30 12:10:31 51°9.807 2°37.953 -999 0.238068 1.375867 -1.801521
2008-01-30 12:11:31 51°9.789 2°37.867 -999 0.238171 1.376578 -1.801521
2008-01-30 12:12:31 51°9.77 2°37.784 -999 0.238171 1.376662 -1.801521
2008-01-30 12:13:31 51°9.753 2°37.699 -999 0.238068 1.376146 -1.801521
2008-01-30 12:14:31 51°9.734 2°37.619 -999 0.238171 1.376913 -1.801521
2008-01-30 12:15:31 51°9.714 2°37.535 -999 0.238274 1.377736 -1.801521
2008-01-30 12:16:31 51°9.695 2°37.451 -999 0.238274 1.377903 -1.801521
2008-01-30 12:17:31 51°9.678 2°37.367 -999 0.238377 1.37881 -1.801521
2008-01-30 12:18:31 51°9.66 2°37.281 -999 0.23848 1.379662 -1.801521
2008-01-30 12:19:31 51°9.642 2°37.194 -999 0.23848 1.379829 -1.801521
2008-01-30 12:20:31 51°9.624 2°37.106 -999 0.238686 1.381141 -1.801521
2008-01-30 12:21:31 51°9.604 2°37.022 -999 0.238583 1.380681 -1.801521
2008-01-30 12:22:31 51°9.586 2°36.937 -999 0.23848 1.380277 -1.801521
2008-01-30 12:23:31 51°9.566 2°36.852 -999 0.238686 1.381646 -1.801521
2008-01-30 12:24:31 51°9.546 2°36.768 -999 0.238583 1.38127 -1.801521
2008-01-30 12:25:31 51°9.53 2°36.679 -999 0.238583 1.38155 -1.801521
2008-01-30 12:26:31 51°9.513 2°36.597 -999 0.238789 1.382975 -1.801521
2008-01-30 12:27:31 51°9.497 2°36.517 -999 0.238686 1.382543 -1.801521
2008-01-30 12:28:31 51°9.477 2°36.44 -999 0.238686 1.382796 -1.801521
2008-01-30 12:29:31 51°9.457 2°36.363 -999 0.238789 1.383678 -1.801521
2008-01-30 12:30:31 51°9.44 2°36.28 -999 0.238583 1.382701 -1.801521
2008-01-30 12:31:31 51°9.421 2°36.203 -999 0.238583 1.382954 -1.801521
2008-01-30 12:32:31 51°9.4 2°36.122 -999 0.238583 1.383263 -1.801521
2008-01-30 12:33:31 51°9.383 2°36.039 -999 0.238686 1.384258 -1.801521
2008-01-30 12:34:31 51°9.367 2°35.955 -999 0.238789 1.385197 -1.801521
2008-01-30 12:35:31 51°9.356 2°35.885 -999 0.238583 1.384163 -1.801521
2008-01-30 12:36:30 51°9.355 2°35.834 -999 0.23848 1.383871 -1.801521
2008-01-30 12:37:31 51°9.341 2°35.806 -999 0.23848 1.384294 -1.801521
2008-01-30 12:38:31 51°9.318 2°35.794 -999 0.238377 1.383776 -1.801521
2008-01-30 12:39:31 51°9.297 2°35.789 -999 0.23848 1.384406 -1.801521
2008-01-30 12:40:31 51°9.277 2°35.782 -999 0.23848 1.384406 -1.801521
2008-01-30 12:41:31 51°9.252 2°35.706 -999 0.238274 1.383456 -1.801521
2008-01-30 12:42:31 51°9.279 2°35.633 -999 0.238274 1.38371 -1.801521
2008-01-30 12:43:31 51°9.3 2°35.698 -999 0.238172 1.383389 -1.801521
2008-01-30 12:44:31 51°9.287 2°35.744 -999 0.237966 1.382776 -1.801521
2008-01-30 12:45:31 51°9.276 2°35.766 -999 0.237966 1.383058 -1.801521
2008-01-30 12:46:30 51°9.275 2°35.81 -999 0.237863 1.382681 -1.801521
2008-01-30 12:47:30 51°9.333 2°35.947 -999 0.237966 1.383425 -1.801521
2008-01-30 12:48:31 51°9.411 2°36.183 -999 0.237966 1.383651 -1.801521
2008-01-30 12:49:31 51°9.496 2°36.446 -999 0.238172 1.385054 -1.801521
2008-01-30 12:50:30 51°9.583 2°36.702 -999 0.238069 1.384705 -1.801521
2008-01-30 12:51:31 51°9.664 2°36.944 -999 0.237966 1.384215 -1.801521
2008-01-30 12:52:30 51°9.749 2°37.17 -999 0.238172 1.385704 -1.801521
2008-01-30 12:53:30 51°9.834 2°37.399 -999 0.237966 1.384639 -1.801521
2008-01-30 12:54:30 51°9.918 2°37.634 -999 0.237863 1.384149 -1.801521
2008-01-30 12:55:30 51°9.996 2°37.87 -999 0.237863 1.384093 -1.801521
2008-01-30 12:56:30 51°10.078 2°38.105 -999 0.237863 1.384149 -1.801521
2008-01-30 12:57:30 51°10.157 2°38.342 -999 0.237863 1.384319 -1.801521
2008-01-30 12:58:30 51°10.236 2°38.575 -999 0.237657 1.383281 -1.801521
2008-01-30 12:59:30 51°10.315 2°38.81 -999 0.23776 1.384139 -1.801521
2008-01-30 13:00:30 51°10.396 2°39.043 -999 0.237554 1.383045 -1.801521
2008-01-30 13:01:30 51°10.478 2°39.28 -999 0.237451 1.382526 -1.801521
2008-01-30 13:02:30 51°10.558 2°39.517 -999 0.237348 1.382092 -1.801521
2008-01-30 13:03:30 51°10.638 2°39.755 -999 0.237348 1.38229 -1.801521
2008-01-30 13:04:30 51°10.72 2°39.993 -999 0.237039 1.380676 -1.801521
2008-01-30 13:05:30 51°10.801 2°40.23 -999 0.237039 1.380845 -1.801521
2008-01-30 13:06:30 51°10.884 2°40.468 -999 0.237039 1.38093 -1.801521
2008-01-30 13:07:30 51°10.967 2°40.707 -999 0.236833 1.379722 -1.801521
2008-01-30 13:08:30 51°11.05 2°40.947 -999 0.236833 1.379835 -1.801521
2008-01-30 13:09:30 51°11.134 2°41.187 -999 0.236628 1.378767 -1.836345
2008-01-30 13:10:30 51°11.217 2°41.425 -999 0.236628 1.378993 -1.766697
2008-01-30 13:11:30 51°11.299 2°41.663 -999 0.236833 1.380258 -1.801521
2008-01-30 13:12:30 51°11.383 2°41.9 -999 0.236525 1.378501 -1.801521
2008-01-30 13:13:30 51°11.469 2°42.138 -999 0.236525 1.378671 -1.766697
2008-01-30 13:14:30 51°11.553 2°42.378 -999 0.236422 1.378123 -1.801521
2008-01-30 13:15:30 51°11.601 2°42.641 -999 0.236422 1.378207 -1.801521
2008-01-30 13:16:30 51°11.618 2°42.921 -999 0.236216 1.376998 -1.801521
2008-01-30 13:17:30 51°11.633 2°43.203 -999 0.23601 1.37579 -1.801521
2008-01-30 13:18:30 51°11.649 2°43.486 -999 0.235907 1.375298 -1.801521
2008-01-30 13:19:30 51°11.668 2°43.767 -999 0.23601 1.375987 -1.801521
2008-01-30 13:20:30 51°11.688 2°44.049 -999 0.23601 1.376099 -1.801521
2008-01-30 13:21:30 51°11.708 2°44.305 -999 0.235907 1.375607 -1.801521
2008-01-30 13:22:30 51°11.72 2°44.523 -999 0.235598 1.37385 -1.801521
2008-01-30 13:23:30 51°11.734 2°44.733 -999 0.235701 1.374511 -1.801521
2008-01-30 13:24:30 51°11.752 2°44.943 -999 0.235701 1.374623 -1.836345
2008-01-30 13:25:30 51°11.773 2°45.15 -999 0.235804 1.375341 -1.801521
2008-01-30 13:26:30 51°11.796 2°45.357 -999 0.235701 1.374792 -1.801521
2008-01-30 13:27:30 51°11.816 2°45.563 -999 0.235598 1.374328 -1.801521
2008-01-30 13:28:30 51°11.838 2°45.769 -999 0.235495 1.373808 -1.801521
2008-01-30 13:29:30 51°11.858 2°45.974 -999 0.235289 1.372682 -1.801521
2008-01-30 13:30:30 51°11.878 2°46.179 -999 0.235598 1.374666 -1.801521
2008-01-30 13:31:30 51°11.903 2°46.382 -999 0.235495 1.374117 -1.801521
2008-01-30 13:32:30 51°11.939 2°46.579 -999 0.235187 1.372302 -1.801521
2008-01-30 13:33:30 51°11.975 2°46.774 -999 0.235495 1.374371 -1.801521
2008-01-30 13:34:30 51°12.03 2°46.953 -999 0.235392 1.373822 -1.801521
2008-01-30 13:35:30 51°12.086 2°47.134 -999 0.235289 1.373301 -1.801521
2008-01-30 13:36:30 51°12.142 2°47.317 -999 0.235289 1.373414 -1.801521
2008-01-30 13:37:30 51°12.197 2°47.5 -999 0.235289 1.37347 -1.801521
2008-01-30 13:38:30 51°12.251 2°47.685 -999 0.235187 1.372893 -1.801521
2008-01-30 13:39:30 51°12.305 2°47.87 -999 0.235187 1.372921 -1.801521
2008-01-30 13:40:30 51°12.359 2°48.056 -999 0.235084 1.372372 -1.801521
2008-01-30 13:41:30 51°12.411 2°48.24 -999 0.235187 1.373118 -1.801521
2008-01-30 13:42:30 51°12.464 2°48.423 -999 0.235084 1.372456 -1.801521
2008-01-30 13:43:30 51°12.516 2°48.605 -999 0.235084 1.372569 -1.801521
2008-01-30 13:44:30 51°12.57 2°48.789 -999 0.235084 1.372625 -1.801521
2008-01-30 13:45:30 51°12.623 2°48.975 -999 0.234981 1.372076 -1.801521
2008-01-30 13:46:30 51°12.677 2°49.159 -999 0.234878 1.371471 -1.801521
2008-01-30 13:47:30 51°12.731 2°49.344 -999 0.235084 1.372794 -1.801521
2008-01-30 13:48:30 51°12.787 2°49.527 -999 0.234878 1.371611 -1.766697
2008-01-30 13:49:30 51°12.849 2°49.705 -999 0.234981 1.372245 -1.766697
2008-01-30 13:50:30 51°12.913 2°49.882 -999 0.234775 1.371034 -1.801521
2008-01-30 13:51:30 51°12.973 2°50.06 -999 0.234775 1.371118 -1.801521
2008-01-30 13:52:30 51°13.035 2°50.237 -999 0.234672 1.370569 -1.801521
2008-01-30 13:53:30 51°13.096 2°50.415 -999 0.234672 1.370625 -1.801521
2008-01-30 13:54:30 51°13.159 2°50.596 -999 0.234569 1.369991 -1.801521
2008-01-30 13:55:30 51°13.22 2°50.777 -999 0.234672 1.370681 -1.801521
2008-01-30 13:56:30 51°13.283 2°50.957 -999 0.234672 1.370738 -1.801521
2008-01-30 13:57:30 51°13.344 2°51.138 -999 0.234672 1.370794 -1.801521
2008-01-30 13:58:30 51°13.405 2°51.319 -999 0.234672 1.37085 -1.801521
2008-01-30 13:59:30 51°13.466 2°51.5 -999 0.234569 1.370244 -1.801521
2008-01-30 14:00:30 51°13.529 2°51.683 -999 0.234569 1.370244 -1.766697
2008-01-30 14:01:30 51°13.593 2°51.865 -999 0.234672 1.370963 -1.801521
2008-01-30 14:02:30 51°13.655 2°52.049 -999 0.234466 1.369779 -1.766697
2008-01-30 14:03:30 51°13.718 2°52.234 -999 0.234466 1.369807 -1.801521
2008-01-30 14:04:30 51°13.78 2°52.42 -999 0.234466 1.369863 -1.801521
2008-01-30 14:05:30 51°13.844 2°52.613 -999 0.234569 1.370497 -1.801521
2008-01-30 14:06:30 51°13.925 2°52.844 -999 0.234466 1.369948 -1.801521
2008-01-30 14:07:31 51°14.017 2°53.105 -999 0.234466 1.370032 -1.801521
2008-01-30 14:08:30 51°14.107 2°53.362 -999 0.23426 1.368736 -1.801521
2008-01-30 14:09:30 51°14.204 2°53.632 -999 0.234363 1.369398 -1.801521
2008-01-30 14:10:30 51°14.292 2°53.914 -999 0.234363 1.369426 -1.801521
2008-01-30 14:11:30 51°14.373 2°54.202 -999 0.234466 1.370032 -1.801521
2008-01-30 14:12:30 51°14.422 2°54.511 -999 0.23426 1.36882 -1.801521
2008-01-30 14:13:30 51°14.396 2°54.831 -999 0.23426 1.368848 -1.801521
2008-01-30 14:14:31 51°14.328 2°55.14 -999 0.234466 1.370173 -1.801521
2008-01-30 14:15:31 51°14.202 2°55.343 -999 0.23426 1.369158 -1.801521
2008-01-30 14:16:33 51°14.1 2°55.426 -999 0.234157 1.368551 -1.801521
2008-01-30 14:17:31 51°14.01 2°55.497 -999 0.234054 1.367861 -1.801521
2008-01-30 14:18:30 51°13.912 2°55.57 -999 0.234054 1.367805 -1.801521
2008-01-30 14:19:30 51°13.818 2°55.639 -999 0.233951 1.367115 -1.801521
2008-01-30 14:20:30 51°13.755 2°55.709 -999 0.233848 1.366424 -1.801521
2008-01-30 14:21:30 51°13.708 2°55.787 -999 0.233848 1.366368 -1.801521
2008-01-30 14:22:32 51°13.68 2°55.879 -999 0.233745 1.365706 -1.801521
2008-01-30 14:23:34 51°13.67 2°55.938 -999 0.233643 1.365016 -1.801521
2008-01-30 14:24:34 51°13.665 2°55.951 -999 0.233643 1.365044 -1.801521
2008-01-30 14:25:34 51°13.664 2°55.953 -999 0.236936 1.385313 -1.801521